Time;durP1;ratioP1;P1;durP2;ratioP2;P2;SDS_P1;SDS_P2;PMS_P1;PMS_P2;Temp;Humidity;BMP_temperature;BMP_pressure;BME280_temperature;BME280_humidity;BME280_pressure;Samples;Min_cycle;Max_cycle;Signal;HPM_P1;HPM_P2
2022/04/26 03:37:31;;;;;;;55.92;36.67;;;8.50;99.90;;;;;;5071277;28;20120;-67
2022/04/26 03:39:57;;;;;;;57.60;37.10;;;8.50;99.90;;;;;;5072132;28;20107;-68
2022/04/26 03:42:22;;;;;;;57.42;37.40;;;8.50;99.90;;;;;;5070680;28;20123;-67
2022/04/26 03:44:48;;;;;;;54.35;37.20;;;8.60;99.90;;;;;;5072025;28;20031;-68
2022/04/26 03:47:14;;;;;;;55.97;37.50;;;8.50;99.90;;;;;;5071603;28;20037;-68
2022/04/26 03:49:39;;;;;;;57.17;37.42;;;8.50;99.90;;;;;;5071814;28;20102;-67
2022/04/26 03:52:05;;;;;;;58.80;36.80;;;8.50;99.90;;;;;;5076576;28;20032;-67
2022/04/26 03:54:31;;;;;;;61.85;38.08;;;8.50;99.90;;;;;;5080844;28;20055;-67
2022/04/26 03:56:58;;;;;;;62.78;39.38;;;8.50;99.90;;;;;;5071426;28;20107;-68
2022/04/26 03:59:23;;;;;;;56.72;35.15;;;8.50;99.90;;;;;;5071082;28;20106;-68
2022/04/26 04:01:49;;;;;;;51.38;33.83;;;8.50;99.90;;;;;;5071774;28;20454;-68
2022/04/26 04:04:15;;;;;;;53.97;33.78;;;8.50;99.90;;;;;;5071393;28;20075;-68
2022/04/26 04:06:41;;;;;;;49.17;32.55;;;8.50;99.90;;;;;;5071047;28;20024;-67
2022/04/26 04:09:07;;;;;;;52.22;33.40;;;8.50;99.90;;;;;;5071769;28;20052;-68
2022/04/26 04:11:32;;;;;;;53.28;34.80;;;8.50;99.90;;;;;;5072378;28;20041;-66
2022/04/26 04:13:58;;;;;;;60.75;36.38;;;8.40;99.90;;;;;;5075298;28;20035;-67
2022/04/26 04:16:24;;;;;;;58.53;35.95;;;8.40;99.90;;;;;;5074415;28;20039;-67
2022/04/26 04:21:34;;;;;;;52.83;34.38;;;8.50;99.90;;;;;;5074549;28;20047;-67
2022/04/26 04:23:59;;;;;;;57.83;36.05;;;8.50;99.90;;;;;;5080745;28;20036;-67
2022/04/26 04:26:25;;;;;;;49.38;31.63;;;8.50;99.90;;;;;;5074452;28;20028;-67
2022/04/26 04:28:52;;;;;;;47.95;30.80;;;8.60;99.90;;;;;;5075346;28;20335;-67
2022/04/26 04:31:17;;;;;;;54.63;33.45;;;8.50;99.90;;;;;;5075040;28;20040;-67
2022/04/26 04:33:46;;;;;;;49.75;32.90;;;8.50;99.90;;;;;;5074953;28;20032;-68
2022/04/26 04:36:12;;;;;;;39.90;26.58;;;8.50;99.90;;;;;;5074819;28;20032;-67
2022/04/26 04:38:37;;;;;;;38.50;25.52;;;8.50;99.90;;;;;;5074628;28;20109;-67
2022/04/26 04:41:04;;;;;;;39.38;26.92;;;8.50;99.90;;;;;;5075270;28;20032;-66
2022/04/26 04:43:30;;;;;;;39.55;25.70;;;8.40;99.90;;;;;;5074135;28;20020;-67
2022/04/26 04:45:56;;;;;;;45.58;30.13;;;8.40;99.90;;;;;;5074631;28;20025;-67
2022/04/26 04:48:21;;;;;;;44.95;30.00;;;8.40;99.90;;;;;;5074299;28;20387;-67
2022/04/26 04:50:47;;;;;;;44.70;28.17;;;8.40;99.90;;;;;;5075266;28;20043;-67
2022/04/26 04:53:13;;;;;;;40.70;27.85;;;8.40;99.90;;;;;;5086210;28;20032;-67
2022/04/26 04:55:40;;;;;;;45.88;29.48;;;8.40;99.90;;;;;;5080173;28;20024;-67
2022/04/26 04:58:06;;;;;;;45.53;29.58;;;8.40;99.90;;;;;;5074262;28;20394;-67
2022/04/26 05:00:31;;;;;;;47.13;29.15;;;8.50;99.90;;;;;;5074123;28;20081;-67
2022/04/26 05:02:58;;;;;;;45.85;29.30;;;8.50;99.90;;;;;;5074422;28;20491;-67
2022/04/26 05:05:24;;;;;;;49.35;30.33;;;8.50;99.90;;;;;;5073748;28;20423;-67
2022/04/26 05:07:50;;;;;;;44.88;28.90;;;8.50;99.90;;;;;;5074494;28;20055;-67
2022/04/26 05:10:16;;;;;;;41.97;28.45;;;8.50;99.90;;;;;;5073691;28;20072;-67
2022/04/26 05:12:41;;;;;;;41.25;28.20;;;8.50;99.90;;;;;;5071229;28;20034;-66
2022/04/26 05:15:07;;;;;;;44.75;28.77;;;8.60;99.90;;;;;;5074211;28;20028;-67
2022/04/26 05:17:33;;;;;;;43.35;27.65;;;8.60;99.90;;;;;;5073412;28;20044;-67
2022/04/26 05:20:00;;;;;;;38.05;26.20;;;8.60;99.90;;;;;;5074462;28;20086;-67
2022/04/26 05:22:26;;;;;;;38.78;25.58;;;8.60;99.90;;;;;;5076219;28;20070;-67
2022/04/26 05:24:58;;;;;;;41.85;28.05;;;8.60;99.90;;;;;;5094616;28;20055;-68
2022/04/26 05:27:26;;;;;;;42.13;28.50;;;8.70;99.90;;;;;;5077153;28;20028;-67
2022/04/26 05:29:52;;;;;;;42.63;27.25;;;8.70;99.90;;;;;;5073765;28;20078;-67
2022/04/26 05:32:25;;;;;;;39.50;26.35;;;8.70;99.90;;;;;;5074268;28;20036;-68
2022/04/26 05:35:04;;;;;;;39.38;26.75;;;8.70;99.90;;;;;;5074019;28;20021;-68
2022/04/26 05:37:33;;;;;;;42.38;27.05;;;8.70;99.90;;;;;;5073330;28;20108;-68
2022/04/26 05:40:02;;;;;;;39.35;26.98;;;8.80;99.90;;;;;;5073727;28;20029;-68
2022/04/26 05:42:31;;;;;;;43.03;29.95;;;8.80;99.90;;;;;;5061924;28;20021;-67
2022/04/26 05:44:57;;;;;;;43.33;28.42;;;8.80;99.90;;;;;;5054161;28;20025;-68
2022/04/26 05:47:23;;;;;;;36.80;24.40;;;8.80;99.90;;;;;;5073273;28;20038;-67
2022/04/26 05:49:49;;;;;;;41.35;26.92;;;8.80;99.90;;;;;;5073858;28;20028;-68
2022/04/26 05:52:15;;;;;;;40.08;27.42;;;8.80;99.90;;;;;;5073723;28;20028;-68
2022/04/26 05:54:41;;;;;;;39.53;25.98;;;8.90;99.90;;;;;;5093284;28;20132;-83
2022/04/26 05:57:06;;;;;;;34.33;23.73;;;8.80;99.90;;;;;;5075329;28;20157;-85
2022/04/26 05:59:32;;;;;;;38.05;25.13;;;8.90;99.90;;;;;;5072702;28;20027;-67
2022/04/26 06:01:58;;;;;;;34.53;24.90;;;8.90;99.90;;;;;;5073309;28;20040;-68
2022/04/26 06:04:27;;;;;;;39.80;26.65;;;8.80;99.90;;;;;;5072906;28;20482;-67
2022/04/26 06:06:52;;;;;;;38.00;25.75;;;8.90;99.90;;;;;;5068941;28;20032;-70
2022/04/26 06:09:19;;;;;;;30.95;23.35;;;8.90;99.90;;;;;;5074049;28;20055;-70
2022/04/26 06:11:45;;;;;;;33.33;24.15;;;9.00;99.90;;;;;;5074162;28;20060;-70
2022/04/26 06:14:11;;;;;;;31.75;23.13;;;9.00;99.90;;;;;;5073149;28;20471;-72
2022/04/26 06:16:37;;;;;;;31.60;23.35;;;9.00;99.90;;;;;;5071601;28;20116;-70
2022/04/26 06:19:02;;;;;;;31.38;23.13;;;8.90;99.90;;;;;;5072361;28;20031;-68
2022/04/26 06:21:28;;;;;;;31.98;24.00;;;8.90;99.90;;;;;;5071802;28;20112;-68
2022/04/26 06:23:54;;;;;;;36.05;25.55;;;8.90;99.90;;;;;;5086129;28;20063;-68
2022/04/26 06:26:20;;;;;;;33.35;23.83;;;8.90;99.90;;;;;;5081372;28;20035;-69
2022/04/26 06:28:45;;;;;;;31.63;23.48;;;8.90;99.90;;;;;;5072066;28;20138;-68
2022/04/26 06:31:11;;;;;;;31.23;22.33;;;9.00;99.90;;;;;;5072849;28;20043;-68
2022/04/26 06:33:37;;;;;;;33.10;24.33;;;9.00;99.90;;;;;;5071648;28;20048;-67
2022/04/26 06:36:03;;;;;;;34.28;23.08;;;9.00;99.90;;;;;;5072559;28;20545;-69
2022/04/26 06:38:29;;;;;;;29.30;21.77;;;9.00;99.90;;;;;;5071063;28;20116;-69
2022/04/26 06:40:55;;;;;;;29.50;21.70;;;9.00;99.90;;;;;;5072324;28;20527;-68
2022/04/26 06:43:21;;;;;;;33.83;24.83;;;9.00;99.90;;;;;;5054123;28;20025;-70
2022/04/26 06:45:47;;;;;;;32.60;23.38;;;9.10;99.90;;;;;;5060820;28;20020;-73
2022/04/26 06:48:14;;;;;;;34.35;25.50;;;9.10;99.90;;;;;;5072853;28;20030;-72
2022/04/26 06:50:40;;;;;;;33.03;25.58;;;9.10;99.90;;;;;;5070980;28;20032;-73
2022/04/26 06:53:06;;;;;;;36.05;26.05;;;9.10;99.90;;;;;;5076209;28;20028;-73
2022/04/26 06:55:32;;;;;;;29.98;24.05;;;9.10;99.90;;;;;;5084450;28;20020;-72
2022/04/26 06:57:58;;;;;;;31.23;24.35;;;9.10;99.90;;;;;;5072457;28;20020;-72
2022/04/26 07:00:24;;;;;;;32.30;23.67;;;9.10;99.90;;;;;;5071799;28;20039;-75
2022/04/26 07:02:50;;;;;;;27.67;23.20;;;9.10;99.90;;;;;;5071506;28;20501;-72
2022/04/26 07:05:16;;;;;;;30.98;22.77;;;9.10;99.90;;;;;;5072218;28;20025;-72
2022/04/26 07:07:42;;;;;;;27.55;21.70;;;9.10;99.90;;;;;;5071699;28;20535;-66
2022/04/26 07:10:09;;;;;;;24.75;20.58;;;9.10;99.90;;;;;;5071838;28;20044;-67
2022/04/26 07:12:35;;;;;;;25.33;21.67;;;9.10;99.90;;;;;;5070358;28;20082;-66
2022/04/26 07:15:02;;;;;;;27.30;21.23;;;9.00;99.90;;;;;;5078644;28;20062;-67
2022/04/26 07:17:28;;;;;;;27.70;21.67;;;9.10;99.90;;;;;;5072114;28;20037;-66
2022/04/26 07:19:53;;;;;;;29.10;21.08;;;9.10;99.90;;;;;;5071778;28;20374;-66
2022/04/26 07:22:19;;;;;;;29.65;21.10;;;9.10;99.90;;;;;;5071882;28;20029;-67
2022/04/26 07:24:44;;;;;;;26.85;20.33;;;9.20;99.90;;;;;;5103061;28;20021;-67
2022/04/26 07:27:11;;;;;;;23.23;18.52;;;9.20;99.90;;;;;;5071709;28;20102;-67
2022/04/26 07:29:41;;;;;;;22.88;19.40;;;9.30;99.90;;;;;;5070839;28;20460;-67
2022/04/26 07:32:07;;;;;;;23.48;16.20;;;9.50;99.90;;;;;;5071767;28;20481;-67
2022/04/26 07:34:33;;;;;;;17.10;13.55;;;9.70;99.90;;;;;;5070786;28;20074;-67
2022/04/26 07:37:01;;;;;;;15.25;11.30;;;9.90;99.90;;;;;;5071877;28;20405;-67
2022/04/26 07:39:29;;;;;;;15.45;11.35;;;10.00;99.90;;;;;;5071300;28;20036;-67
2022/04/26 07:41:55;;;;;;;13.57;10.98;;;10.20;99.90;;;;;;5071762;28;20028;-67
2022/04/26 07:44:21;;;;;;;12.45;10.68;;;10.20;99.90;;;;;;5072401;28;20122;-67
2022/04/26 07:46:49;;;;;;;12.35;10.05;;;10.30;99.90;;;;;;5069383;28;20075;-67
2022/04/26 07:49:16;;;;;;;11.32;10.15;;;10.30;99.90;;;;;;5071663;28;20408;-67
2022/04/26 07:51:42;;;;;;;12.07;10.77;;;10.30;99.90;;;;;;5070924;28;20036;-68
2022/04/26 07:54:11;;;;;;;12.32;10.45;;;10.30;99.90;;;;;;5082082;28;20036;-67
2022/04/26 07:56:37;;;;;;;15.57;10.32;;;10.30;99.90;;;;;;5079565;28;20037;-67
2022/04/26 07:59:03;;;;;;;14.18;10.25;;;10.30;99.90;;;;;;5071133;28;20095;-67
2022/04/26 08:01:30;;;;;;;13.13;11.73;;;10.30;99.90;;;;;;5071186;28;20111;-66
2022/04/26 08:03:57;;;;;;;13.90;11.38;;;10.20;99.90;;;;;;5070426;28;20458;-66
2022/04/26 08:06:23;;;;;;;14.40;11.43;;;10.30;99.90;;;;;;5071288;28;20029;-66
2022/04/26 08:08:48;;;;;;;12.25;10.88;;;10.40;99.90;;;;;;5066896;28;20057;-67
2022/04/26 08:11:15;;;;;;;13.77;11.25;;;10.50;99.90;;;;;;5072310;28;20036;-67
2022/04/26 08:13:41;;;;;;;11.98;10.57;;;10.50;99.90;;;;;;5077693;28;20445;-66
2022/04/26 08:16:08;;;;;;;11.07;9.88;;;10.50;99.90;;;;;;5070930;28;20357;-67
2022/04/26 08:18:33;;;;;;;11.48;10.27;;;10.50;99.90;;;;;;5070106;28;20029;-67
2022/04/26 08:21:00;;;;;;;13.00;9.23;;;10.50;99.90;;;;;;5071476;28;20112;-67
2022/04/26 08:23:25;;;;;;;11.77;10.00;;;10.50;99.90;;;;;;5074797;28;20028;-67
2022/04/26 08:28:35;;;;;;;12.07;10.13;;;10.60;99.90;;;;;;5069581;28;20055;-67
2022/04/26 08:31:01;;;;;;;11.90;9.27;;;10.60;99.90;;;;;;5070635;28;20068;-67
2022/04/26 08:33:29;;;;;;;11.38;8.55;;;10.70;99.90;;;;;;5070416;28;20036;-68
2022/04/26 08:35:56;;;;;;;9.95;8.85;;;10.80;99.90;;;;;;5070572;28;20110;-68
2022/04/26 08:38:21;;;;;;;11.20;9.60;;;10.80;99.90;;;;;;5070488;28;20025;-66
2022/04/26 08:40:48;;;;;;;14.27;8.20;;;11.00;99.90;;;;;;5070591;28;20554;-68
2022/04/26 08:43:14;;;;;;;9.20;8.30;;;11.00;99.90;;;;;;5067867;28;20032;-69
2022/04/26 08:45:40;;;;;;;10.45;8.43;;;11.10;99.90;;;;;;5085935;28;20452;-67
2022/04/26 08:51:00;;;;;;;9.13;8.13;;;11.50;99.90;;;;;;5070184;28;20054;-68
2022/04/26 08:53:30;;;;;;;9.95;8.98;;;11.70;99.90;;;;;;5072331;28;20060;-68
2022/04/26 08:56:06;;;;;;;10.57;8.27;;;11.80;99.90;;;;;;5090840;28;20028;-69
2022/04/26 08:58:33;;;;;;;9.70;8.45;;;11.90;99.90;;;;;;5094170;28;20030;-67
2022/04/26 09:01:19;;;;;;;11.43;8.80;;;12.10;99.90;;;;;;5080176;28;20474;-69
2022/04/26 09:03:54;;;;;;;12.30;9.15;;;12.10;99.90;;;;;;5073146;28;20025;-70
2022/04/26 09:06:40;;;;;;;11.13;9.10;;;12.10;99.90;;;;;;5074395;28;20025;-70
2022/04/26 09:09:07;;;;;;;13.82;9.68;;;12.00;99.90;;;;;;5073870;28;20110;-69
2022/04/26 09:11:34;;;;;;;10.57;9.07;;;12.00;99.90;;;;;;5073127;28;20381;-68
2022/04/26 09:14:05;;;;;;;14.07;8.52;;;12.00;99.90;;;;;;5087296;28;20112;-68
2022/04/26 09:16:31;;;;;;;11.23;7.95;;;12.10;99.90;;;;;;5074228;28;20454;-69
2022/04/26 09:19:00;;;;;;;8.82;7.88;;;12.10;99.90;;;;;;5073715;28;20055;-69
2022/04/26 09:21:28;;;;;;;9.27;7.22;;;12.20;99.90;;;;;;5073953;28;20036;-69
2022/04/26 09:24:01;;;;;;;11.38;7.75;;;12.20;99.90;;;;;;5077724;28;20104;-68
2022/04/26 09:26:38;;;;;;;11.60;7.57;;;12.20;99.90;;;;;;5087159;28;20567;-68
2022/04/26 09:29:08;;;;;;;13.50;7.40;;;12.20;99.90;;;;;;5074547;28;20036;-69
2022/04/26 09:31:36;;;;;;;8.10;6.57;;;12.20;99.90;;;;;;5073341;28;20063;-67
2022/04/26 09:34:11;;;;;;;11.05;7.38;;;12.20;99.90;;;;;;5073409;28;20461;-68
2022/04/26 09:36:45;;;;;;;9.73;6.82;;;12.20;99.90;;;;;;5073178;28;20021;-67
2022/04/26 09:39:17;;;;;;;11.35;7.07;;;12.30;99.90;;;;;;5073555;28;20035;-68
2022/04/26 09:41:49;;;;;;;9.98;6.68;;;12.30;99.90;;;;;;5073144;28;20025;-68
2022/04/26 09:44:15;;;;;;;8.38;6.65;;;12.40;99.90;;;;;;5080992;28;20024;-68
2022/04/26 09:46:41;;;;;;;9.60;6.32;;;12.50;99.90;;;;;;5071758;28;20027;-68
2022/04/26 09:49:34;;;;;;;7.05;5.50;;;12.70;99.90;;;;;;5073213;28;20031;-68
2022/04/26 09:52:00;;;;;;;6.15;5.50;;;12.90;99.90;;;;;;5061138;28;20055;-68
2022/04/26 09:54:26;;;;;;;6.95;6.25;;;13.10;99.90;;;;;;5081221;28;20024;-68
2022/04/26 09:56:53;;;;;;;10.02;6.25;;;13.20;99.90;;;;;;5092706;28;20028;-68
2022/04/26 09:59:28;;;;;;;9.50;5.90;;;13.40;99.90;;;;;;5092435;28;20033;-69
2022/04/26 10:01:56;;;;;;;8.60;5.00;;;13.70;99.90;;;;;;5084450;28;20029;-70
2022/04/26 10:04:24;;;;;;;9.63;5.32;;;13.90;99.90;;;;;;5070747;28;20043;-68
2022/04/26 10:06:52;;;;;;;7.75;5.57;;;14.20;99.90;;;;;;5073818;28;20029;-69
2022/04/26 10:09:19;;;;;;;7.40;5.28;;;14.50;99.90;;;;;;5072542;28;20049;-69
2022/04/26 10:11:45;;;;;;;9.77;6.00;;;14.70;98.50;;;;;;5072306;28;20045;-69
2022/04/26 10:14:12;;;;;;;7.13;5.00;;;14.70;99.90;;;;;;5076904;28;20359;-69
2022/04/26 10:16:38;;;;;;;6.72;4.75;;;14.80;95.90;;;;;;5072939;28;20458;-68
2022/04/26 10:19:08;;;;;;;8.30;4.85;;;14.70;96.20;;;;;;5072799;28;20115;-69
2022/04/26 10:21:40;;;;;;;;;;;14.60;96.60;;;;;;5073195;28;20059;-70
2022/04/26 10:24:06;;;;;;;9.55;4.47;;;14.60;97.70;;;;;;5072973;28;19953;-69
2022/04/26 10:26:35;;;;;;;8.73;5.10;;;14.60;97.40;;;;;;5080020;28;20035;-71
2022/04/26 10:29:08;;;;;;;9.50;4.88;;;14.60;98.50;;;;;;5073287;28;20025;-72
2022/04/26 10:31:40;;;;;;;5.63;4.50;;;14.80;98.40;;;;;;5072600;28;20055;-71
2022/04/26 10:34:24;;;;;;;8.65;5.00;;;14.80;97.10;;;;;;5072058;28;20028;-71
2022/04/26 10:37:18;;;;;;;5.78;4.43;;;14.90;95.90;;;;;;5069616;28;20474;-73
2022/04/26 10:39:46;;;;;;;6.30;4.20;;;15.00;95.50;;;;;;5071456;28;20083;-69
2022/04/26 10:42:15;;;;;;;7.22;4.45;;;15.10;96.70;;;;;;5072050;28;20098;-70
2022/04/26 10:44:45;;;;;;;5.78;4.18;;;15.30;95.20;;;;;;5090284;28;20034;-69
2022/04/26 10:47:20;;;;;;;7.95;4.55;;;15.50;93.40;;;;;;5072688;28;20052;-71
2022/04/26 10:49:47;;;;;;;5.15;3.65;;;15.40;91.10;;;;;;5064318;28;20028;-70
2022/04/26 10:52:13;;;;;;;6.20;4.10;;;15.20;90.10;;;;;;5072065;28;20064;-71
2022/04/26 10:54:48;;;;;;;6.40;3.97;;;15.10;92.00;;;;;;5078810;28;20028;-71
2022/04/26 10:57:16;;;;;;;8.93;3.90;;;15.10;91.60;;;;;;5077218;28;20032;-71
2022/04/26 10:59:49;;;;;;;7.53;3.92;;;15.10;89.30;;;;;;5074467;28;20036;-71
2022/04/26 11:02:20;;;;;;;6.32;3.95;;;15.10;87.20;;;;;;5071830;28;20028;-71
2022/04/26 11:04:46;;;;;;;4.72;3.88;;;15.00;90.10;;;;;;5071708;28;20036;-70
2022/04/26 11:07:16;;;;;;;8.05;3.95;;;14.80;90.10;;;;;;5071804;28;20029;-71
2022/04/26 11:09:49;;;;;;;10.32;4.25;;;14.90;90.30;;;;;;5070076;28;20076;-69
2022/04/26 11:12:17;;;;;;;4.10;3.50;;;15.00;87.80;;;;;;5071949;28;20037;-71
2022/04/26 11:14:44;;;;;;;5.68;3.85;;;15.30;89.60;;;;;;5090010;28;20032;-69
2022/04/26 11:17:10;;;;;;;4.72;3.38;;;15.30;83.30;;;;;;5077604;28;20028;-71
2022/04/26 11:19:38;;;;;;;5.78;3.72;;;15.30;80.80;;;;;;5071650;28;20021;-71
2022/04/26 11:22:08;;;;;;;6.97;3.90;;;15.10;81.80;;;;;;5071065;28;20465;-72
2022/04/26 11:30:06;;;;;;;11.15;8.18;;;14.10;94.60;;;;;;5070694;28;20034;-70
2022/04/26 11:32:43;;;;;;;9.02;7.30;;;13.60;96.90;;;;;;5069759;28;20486;-72
2022/04/26 11:35:14;;;;;;;13.23;7.85;;;13.20;99.30;;;;;;5071204;28;20450;-74
2022/04/26 11:37:44;;;;;;;7.82;6.90;;;13.10;99.90;;;;;;5071177;28;20486;-71
2022/04/26 11:40:11;;;;;;;10.80;6.65;;;13.30;99.90;;;;;;5070977;28;20078;-72
2022/04/26 11:42:37;;;;;;;8.35;6.93;;;13.40;99.90;;;;;;5072110;28;20032;-72
2022/04/26 11:45:06;;;;;;;10.60;6.97;;;13.70;99.40;;;;;;5072085;28;20042;-72
2022/04/26 11:47:39;;;;;;;8.27;6.90;;;13.90;99.00;;;;;;5070771;28;20033;-72
2022/04/26 11:50:25;;;;;;;8.13;6.45;;;14.00;99.40;;;;;;5070778;28;20107;-71
2022/04/26 11:52:53;;;;;;;8.32;5.30;;;14.20;97.60;;;;;;5070623;28;20050;-72
2022/04/26 11:55:35;;;;;;;8.48;5.80;;;14.10;94.90;;;;;;5069886;28;20035;-72
2022/04/26 11:58:17;;;;;;;7.20;5.75;;;13.90;95.60;;;;;;5070661;28;20025;-70
2022/04/26 12:00:56;;;;;;;11.38;5.85;;;13.70;97.80;;;;;;5070828;28;20149;-70
2022/04/26 12:03:24;;;;;;;6.57;5.10;;;13.60;97.90;;;;;;5070502;28;20035;-72
2022/04/26 12:05:54;;;;;;;6.10;4.85;;;13.40;97.50;;;;;;5070866;28;20052;-70
2022/04/26 12:08:21;;;;;;;6.18;5.15;;;13.30;97.50;;;;;;5070884;28;20439;-71
2022/04/26 12:10:48;;;;;;;8.43;5.20;;;13.20;96.90;;;;;;5071147;28;20116;-68
2022/04/26 12:13:16;;;;;;;6.68;4.68;;;13.20;97.40;;;;;;5077013;28;20035;-74
2022/04/26 12:15:42;;;;;;;7.10;5.18;;;13.10;95.90;;;;;;5079966;28;20067;-72
2022/04/26 12:18:14;;;;;;;6.80;4.85;;;12.90;93.80;;;;;;5064611;28;20034;-72
2022/04/26 12:20:55;;;;;;;7.32;4.60;;;12.90;95.00;;;;;;5056163;28;20025;-72
2022/04/26 12:23:22;;;;;;;6.60;3.95;;;13.10;96.30;;;;;;5072257;28;20047;-72
2022/04/26 12:26:09;;;;;;;9.20;4.63;;;13.20;95.90;;;;;;5071041;28;20032;-69
2022/04/26 12:28:51;;;;;;;6.40;4.72;;;13.30;95.80;;;;;;5071582;28;20768;-72
2022/04/26 12:31:25;;;;;;;5.18;4.68;;;13.30;96.00;;;;;;5071115;28;20068;-74
2022/04/26 12:34:12;;;;;;;9.48;5.15;;;13.20;96.20;;;;;;5073951;28;20100;-70
2022/04/26 12:37:03;;;;;;;8.07;6.00;;;13.10;95.80;;;;;;5074803;28;20040;-71
2022/04/26 12:39:45;;;;;;;8.70;6.88;;;13.10;97.10;;;;;;5074617;28;20042;-71
2022/04/26 12:42:15;;;;;;;7.65;6.38;;;13.10;98.10;;;;;;5073035;28;20099;-71
2022/04/26 12:44:50;;;;;;;11.15;6.03;;;12.90;98.80;;;;;;5093123;28;20039;-72
2022/04/26 12:52:45;;;;;;;4.95;2.97;;;12.40;99.20;;;;;;5074657;28;20055;-72
2022/04/26 12:55:11;;;;;;;4.07;3.30;;;12.10;99.40;;;;;;5078896;28;20055;-72
2022/04/26 12:57:51;;;;;;;5.85;3.05;;;11.50;99.90;;;;;;5088949;28;20028;-71
2022/04/26 13:00:21;;;;;;;4.43;3.00;;;10.90;99.90;;;;;;5074615;28;20017;-72
2022/04/26 13:02:52;;;;;;;4.15;3.05;;;10.50;99.90;;;;;;5074134;28;20033;-72
2022/04/26 13:05:19;;;;;;;4.93;3.20;;;10.10;99.90;;;;;;5074873;28;20388;-72
2022/04/26 13:07:48;;;;;;;4.53;2.83;;;9.80;99.90;;;;;;5074359;28;20602;-72
2022/04/26 13:10:16;;;;;;;3.63;3.10;;;9.70;99.90;;;;;;5073481;28;20068;-71
2022/04/26 13:12:42;;;;;;;8.27;3.30;;;9.60;99.90;;;;;;5075508;28;20036;-71
2022/04/26 13:15:08;;;;;;;6.35;3.28;;;9.50;99.90;;;;;;5085405;28;20638;-70
2022/04/26 13:17:36;;;;;;;4.80;3.53;;;9.90;99.90;;;;;;5074099;28;20067;-71
2022/04/26 13:20:03;;;;;;;5.75;3.35;;;9.40;99.90;;;;;;5072567;28;20092;-70
2022/04/26 13:22:30;;;;;;;4.88;3.67;;;9.50;99.90;;;;;;5073903;28;20029;-71
2022/04/26 13:24:55;;;;;;;4.88;3.33;;;9.50;99.90;;;;;;5075255;28;20034;-70
2022/04/26 13:27:21;;;;;;;7.38;3.30;;;9.70;99.90;;;;;;5074685;28;20020;-71
2022/04/26 13:29:48;;;;;;;5.57;3.80;;;10.00;99.90;;;;;;5073122;28;20040;-71
2022/04/26 13:32:15;;;;;;;4.80;3.90;;;10.60;99.90;;;;;;5072962;28;20086;-72
2022/04/26 13:34:40;;;;;;;4.18;3.35;;;11.40;99.90;;;;;;5073360;28;20397;-72
2022/04/26 13:37:07;;;;;;;5.00;3.67;;;12.10;99.90;;;;;;5073152;28;20029;-72
2022/04/26 13:39:34;;;;;;;5.43;2.97;;;12.70;99.90;;;;;;5073098;28;20114;-71
2022/04/26 13:42:00;;;;;;;4.28;2.97;;;13.40;99.90;;;;;;5065397;28;20029;-71
2022/04/26 13:44:26;;;;;;;3.20;2.90;;;13.50;99.90;;;;;;5084484;28;20157;-72
2022/04/26 13:46:53;;;;;;;3.03;2.75;;;13.60;99.90;;;;;;5089797;28;20024;-69
2022/04/26 13:49:19;;;;;;;3.08;2.08;;;13.80;99.90;;;;;;5066938;28;20039;-72
2022/04/26 13:51:44;;;;;;;6.05;2.60;;;14.20;99.90;;;;;;5072922;28;20036;-71
2022/04/26 13:54:10;;;;;;;2.30;2.10;;;14.50;99.90;;;;;;5070968;28;20092;-72
2022/04/26 13:56:36;;;;;;;2.88;2.13;;;14.80;97.40;;;;;;5077490;28;20132;-72
2022/04/26 13:59:02;;;;;;;2.30;2.10;;;14.90;95.10;;;;;;5088383;28;20373;-73
2022/04/26 14:01:28;;;;;;;2.13;1.80;;;14.80;97.60;;;;;;5079757;28;20029;-72
2022/04/26 14:03:53;;;;;;;2.08;1.80;;;14.60;93.80;;;;;;5065856;28;20029;-71
2022/04/26 14:06:21;;;;;;;2.05;1.60;;;14.40;93.70;;;;;;5074261;28;20064;-71
2022/04/26 14:08:49;;;;;;;2.00;1.80;;;14.30;94.00;;;;;;5073204;28;20048;-69
2022/04/26 14:11:16;;;;;;;2.28;1.70;;;14.60;90.50;;;;;;5072898;28;20044;-73
2022/04/26 14:21:54;;;;;;;1.90;1.77;;;14.80;88.90;;;;;;5060684;28;20043;-80
2022/04/26 14:24:19;;;;;;;3.22;2.50;;;14.70;91.50;;;;;;5069980;28;20378;-73
2022/04/26 14:26:45;;;;;;;3.55;2.30;;;14.90;90.50;;;;;;5079921;28;20024;-73
2022/04/26 14:29:11;;;;;;;3.05;2.70;;;15.10;89.40;;;;;;5073813;28;20032;-72
2022/04/26 14:31:36;;;;;;;4.07;3.17;;;15.10;86.30;;;;;;5085202;28;20040;-73
2022/04/26 14:34:03;;;;;;;4.25;2.83;;;14.90;85.80;;;;;;5071123;28;20031;-71
2022/04/26 14:36:29;;;;;;;6.10;2.78;;;14.70;90.30;;;;;;5071824;28;20039;-71
2022/04/26 14:38:55;;;;;;;4.63;2.67;;;14.50;90.20;;;;;;5071345;28;20181;-73
2022/04/26 14:41:20;;;;;;;4.43;3.05;;;14.30;90.00;;;;;;5070062;28;20029;-77
2022/04/26 14:43:46;;;;;;;3.72;2.78;;;14.20;91.30;;;;;;5070075;28;20020;-76
2022/04/26 14:46:11;;;;;;;3.78;2.60;;;14.00;90.80;;;;;;5071265;28;20583;-76
2022/04/26 14:48:38;;;;;;;3.58;3.00;;;13.80;91.00;;;;;;5072334;28;20025;-71
2022/04/26 14:51:04;;;;;;;3.67;3.03;;;13.80;90.70;;;;;;5071342;28;20090;-75
2022/04/26 14:53:30;;;;;;;3.92;2.50;;;14.00;90.60;;;;;;5072132;28;20032;-72
2022/04/26 14:55:59;;;;;;;2.53;2.33;;;14.40;90.30;;;;;;5075330;28;20024;-70
2022/04/26 14:58:25;;;;;;;2.38;2.00;;;14.60;88.70;;;;;;5092798;28;20488;-71
2022/04/26 15:00:51;;;;;;;2.92;2.70;;;14.80;90.00;;;;;;5072711;28;20025;-71
2022/04/26 15:03:17;;;;;;;2.80;2.38;;;15.30;84.00;;;;;;5071376;28;20059;-71
2022/04/26 15:05:43;;;;;;;6.78;2.65;;;15.60;85.80;;;;;;5071828;28;20079;-71
2022/04/26 15:10:53;;;;;;;3.53;2.42;;;15.90;81.90;;;;;;5071258;28;20075;-72
2022/04/26 15:18:48;;;;;;;3.50;3.05;;;15.20;81.50;;;;;;5075520;28;20043;-72
2022/04/26 15:21:14;;;;;;;4.10;2.38;;;14.90;81.70;;;;;;5071162;28;20028;-76
2022/04/26 15:23:39;;;;;;;3.72;2.78;;;14.70;84.30;;;;;;5072084;28;20021;-70
2022/04/26 15:26:09;;;;;;;2.80;2.50;;;14.40;83.60;;;;;;5075746;28;20020;-75
2022/04/26 15:28:34;;;;;;;2.80;2.50;;;14.10;86.20;;;;;;5075461;28;20029;-72
2022/04/26 15:31:01;;;;;;;3.03;2.63;;;13.90;85.30;;;;;;5069984;28;20263;-72
2022/04/26 15:33:26;;;;;;;4.65;2.75;;;13.70;85.80;;;;;;5071658;28;20032;-74
2022/04/26 15:35:52;;;;;;;3.55;2.70;;;13.50;87.50;;;;;;5071621;28;20102;-76
2022/04/26 15:38:18;;;;;;;5.38;2.97;;;13.30;89.00;;;;;;5071034;28;20197;-74
2022/04/26 15:40:46;;;;;;;3.10;2.80;;;13.20;90.10;;;;;;5071542;28;20032;-72
2022/04/26 15:43:13;;;;;;;5.68;3.40;;;13.10;91.10;;;;;;5064462;28;20031;-74
2022/04/26 15:45:39;;;;;;;3.58;2.70;;;12.90;92.10;;;;;;5091916;28;20107;-73
2022/04/26 15:48:05;;;;;;;7.32;3.08;;;12.70;94.60;;;;;;5078114;28;20109;-71
2022/04/26 15:50:31;;;;;;;6.05;3.70;;;12.30;99.90;;;;;;5078907;28;20073;-73
2022/04/26 15:52:57;;;;;;;5.35;4.57;;;11.90;99.90;;;;;;5075111;28;20043;-71
2022/04/26 15:55:23;;;;;;;6.43;4.22;;;11.30;99.90;;;;;;5071437;28;20103;-70
2022/04/26 15:57:53;;;;;;;5.78;5.13;;;10.90;99.90;;;;;;5072995;28;20040;-71
2022/04/26 16:00:20;;;;;;;7.47;4.03;;;10.50;99.90;;;;;;5070496;28;20497;-72
2022/04/26 16:02:51;;;;;;;5.22;3.92;;;10.30;99.90;;;;;;5070923;28;20036;-74
2022/04/26 16:05:17;;;;;;;4.72;4.22;;;10.20;99.90;;;;;;5070449;28;20024;-76
2022/04/26 16:07:43;;;;;;;5.85;4.47;;;10.10;99.90;;;;;;5072934;28;20039;-76
2022/04/26 16:21:06;;;;;;;3.45;2.72;;;10.60;99.90;;;;;;5059432;28;20044;-72
2022/04/26 16:23:31;;;;;;;3.72;3.30;;;10.70;99.90;;;;;;5075669;28;20028;-72
2022/04/26 16:26:02;;;;;;;3.95;3.00;;;10.70;99.90;;;;;;5073917;28;20107;-71
2022/04/26 16:28:30;;;;;;;4.38;2.85;;;10.60;99.90;;;;;;5075549;28;20024;-79
2022/04/26 16:30:56;;;;;;;3.47;2.83;;;10.50;99.90;;;;;;5073803;28;20035;-81
2022/04/26 16:33:21;;;;;;;6.60;2.85;;;10.30;99.90;;;;;;5074882;28;20021;-78
2022/04/26 16:35:47;;;;;;;3.10;2.80;;;10.20;99.90;;;;;;5074788;28;20062;-81
2022/04/26 16:38:13;;;;;;;3.22;2.72;;;10.10;99.90;;;;;;5067845;28;20037;-78
2022/04/26 16:40:39;;;;;;;3.13;2.80;;;10.00;99.90;;;;;;5076299;28;20107;-75
2022/04/26 16:43:05;;;;;;;3.33;2.65;;;10.00;99.90;;;;;;5079095;28;20532;-75
2022/04/26 16:45:33;;;;;;;4.60;3.60;;;10.00;99.90;;;;;;5081943;28;20458;-75
2022/04/26 16:47:58;;;;;;;4.07;3.30;;;10.10;99.90;;;;;;5073424;28;20055;-75
2022/04/26 16:50:24;;;;;;;2.78;2.53;;;10.10;99.90;;;;;;5074631;28;20025;-74
2022/04/26 16:52:50;;;;;;;3.75;2.63;;;10.10;99.90;;;;;;5074491;28;20469;-75
2022/04/26 16:55:16;;;;;;;2.70;2.50;;;10.20;99.90;;;;;;5073954;28;20038;-75
2022/04/26 16:57:42;;;;;;;2.67;2.40;;;10.20;99.90;;;;;;5076026;28;20101;-75
2022/04/26 17:00:08;;;;;;;2.53;2.28;;;10.10;99.90;;;;;;5073073;28;20036;-76
2022/04/26 17:02:34;;;;;;;2.60;2.40;;;9.90;99.90;;;;;;5074189;28;20063;-75
2022/04/26 17:04:59;;;;;;;2.53;2.30;;;9.90;99.90;;;;;;5073982;28;20021;-75
2022/04/26 17:07:25;;;;;;;3.70;2.88;;;9.80;99.90;;;;;;5074089;28;20059;-76
2022/04/26 17:09:52;;;;;;;3.13;2.45;;;9.70;99.90;;;;;;5074378;28;20047;-75